Time;durP1;ratioP1;P1;durP2;ratioP2;P2;SDS_P1;SDS_P2;PMS_P1;PMS_P2;Temp;Humidity;BMP_temperature;BMP_pressure;BME280_temperature;BME280_humidity;BME280_pressure;Samples;Min_cycle;Max_cycle;Signal;HPM_P1;HPM_P2
2023/07/24 00:01:18;;;;;;;13.27;6.15;;;16.80;99.90;;;;;;5135629;27;20665;-80
2023/07/24 00:03:47;;;;;;;12.18;6.40;;;16.70;99.90;;;;;;5123830;27;20074;-80
2023/07/24 00:06:13;;;;;;;13.13;6.40;;;16.70;99.90;;;;;;5137676;27;20089;-80
2023/07/24 00:08:38;;;;;;;12.30;6.65;;;16.70;99.90;;;;;;5135390;27;20038;-80
2023/07/24 00:11:08;;;;;;;14.35;6.63;;;16.70;99.90;;;;;;5121836;27;20043;-80
2023/07/24 00:13:33;;;;;;;14.30;6.25;;;16.70;99.90;;;;;;5118403;27;20031;-79
2023/07/24 00:15:59;;;;;;;12.60;6.07;;;16.70;99.90;;;;;;5118718;27;20478;-80
2023/07/24 00:18:24;;;;;;;12.30;6.03;;;16.70;99.90;;;;;;5115711;27;20063;-80
2023/07/24 00:20:50;;;;;;;12.48;5.97;;;16.70;99.90;;;;;;5140272;27;20485;-79
2023/07/24 00:23:15;;;;;;;12.68;6.57;;;16.70;99.90;;;;;;5136185;27;20035;-80
2023/07/24 00:25:41;;;;;;;11.02;5.55;;;16.60;99.90;;;;;;5114797;27;20414;-80
2023/07/24 00:28:07;;;;;;;10.27;5.65;;;16.60;99.90;;;;;;5117417;27;20050;-80
2023/07/24 00:30:32;;;;;;;9.90;6.30;;;16.60;99.90;;;;;;5130665;27;20110;-80
2023/07/24 00:32:58;;;;;;;11.88;6.70;;;16.60;99.90;;;;;;5138326;27;21647;-79
2023/07/24 00:35:25;;;;;;;11.13;5.85;;;16.60;99.90;;;;;;5135314;27;20569;-79
2023/07/24 00:37:50;;;;;;;13.45;6.10;;;16.60;99.90;;;;;;5138629;27;20058;-79
2023/07/24 00:40:16;;;;;;;13.10;6.25;;;16.60;99.90;;;;;;5133097;27;20031;-80
2023/07/24 00:42:46;;;;;;;9.70;5.43;;;16.50;99.90;;;;;;5136387;27;20035;-79
2023/07/24 00:45:12;;;;;;;10.07;5.80;;;16.60;99.90;;;;;;5134167;27;20050;-79
2023/07/24 00:47:37;;;;;;;11.65;6.55;;;16.50;99.90;;;;;;5133405;27;20039;-79
2023/07/24 00:50:04;;;;;;;13.57;5.97;;;16.50;99.90;;;;;;5132052;27;20052;-79
2023/07/24 00:52:29;;;;;;;9.85;6.30;;;16.50;99.90;;;;;;5132779;27;20045;-80
2023/07/24 00:54:55;;;;;;;14.50;6.65;;;16.50;99.90;;;;;;5136579;27;20402;-79
2023/07/24 00:57:21;;;;;;;14.20;6.82;;;16.40;99.90;;;;;;5134595;27;20600;-79
2023/07/24 00:59:47;;;;;;;12.10;6.28;;;16.40;99.90;;;;;;5134808;27;20038;-79
2023/07/24 01:02:12;;;;;;;10.50;5.97;;;16.40;99.90;;;;;;5139963;27;20331;-79
2023/07/24 01:04:38;;;;;;;11.18;7.07;;;16.40;99.90;;;;;;5125482;27;20141;-80
2023/07/24 01:07:04;;;;;;;13.52;7.50;;;16.40;99.90;;;;;;5122647;27;20043;-80
2023/07/24 01:09:30;;;;;;;10.13;5.90;;;16.40;99.90;;;;;;5143844;27;20058;-80
2023/07/24 01:12:02;;;;;;;12.77;6.95;;;16.40;99.90;;;;;;5140673;27;20074;-79
2023/07/24 01:14:49;;;;;;;13.50;7.72;;;16.50;99.90;;;;;;5134480;27;20039;-80
2023/07/24 01:17:18;;;;;;;13.48;7.43;;;16.40;99.90;;;;;;5140651;27;20034;-79
2023/07/24 01:19:51;;;;;;;12.32;7.25;;;16.40;99.90;;;;;;5142991;27;20042;-79
2023/07/24 01:22:27;;;;;;;17.73;8.00;;;16.50;99.90;;;;;;5134329;27;20030;-80
2023/07/24 01:24:59;;;;;;;14.15;8.35;;;16.50;99.90;;;;;;5137876;27;20046;-79
2023/07/24 01:27:24;;;;;;;13.73;8.77;;;16.50;99.90;;;;;;5119350;27;20042;-79
2023/07/24 01:29:50;;;;;;;16.10;8.90;;;16.50;99.90;;;;;;5138683;27;20091;-79
2023/07/24 01:32:16;;;;;;;13.55;9.25;;;16.50;99.90;;;;;;5119237;27;20043;-80
2023/07/24 01:34:42;;;;;;;18.45;9.25;;;16.50;99.90;;;;;;5146146;27;20389;-80
2023/07/24 01:37:09;;;;;;;20.77;9.77;;;16.50;99.90;;;;;;5122782;27;20439;-79
2023/07/24 01:39:35;;;;;;;16.10;9.90;;;16.50;99.90;;;;;;5120580;27;20058;-80
2023/07/24 01:42:02;;;;;;;15.25;10.20;;;16.50;99.90;;;;;;5130576;27;20049;-79
2023/07/24 01:44:27;;;;;;;17.83;10.75;;;16.50;99.90;;;;;;5122116;27;20038;-80
2023/07/24 01:46:53;;;;;;;16.65;11.25;;;16.50;99.90;;;;;;5143170;27;20534;-80
2023/07/24 01:49:19;;;;;;;15.80;11.25;;;16.50;99.90;;;;;;5137281;27;20042;-80
2023/07/24 01:51:44;;;;;;;17.15;10.88;;;16.50;99.90;;;;;;5127661;27;20038;-80
2023/07/24 01:54:10;;;;;;;14.52;11.07;;;16.50;99.90;;;;;;5141020;27;20038;-79
2023/07/24 01:56:37;;;;;;;17.13;12.45;;;16.50;99.90;;;;;;5143246;27;20518;-79
2023/07/24 01:59:03;;;;;;;18.10;11.85;;;16.50;99.90;;;;;;5140687;27;20058;-80
2023/07/24 02:01:28;;;;;;;17.25;11.32;;;16.50;99.90;;;;;;5139998;27;20085;-79
2023/07/24 02:03:54;;;;;;;14.07;10.23;;;16.50;99.90;;;;;;5143136;27;20039;-79
2023/07/24 02:06:19;;;;;;;15.85;11.25;;;16.50;99.90;;;;;;5138127;27;20035;-80
2023/07/24 02:08:48;;;;;;;15.63;10.52;;;16.50;99.90;;;;;;5124841;27;20096;-79
2023/07/24 02:11:15;;;;;;;17.20;11.18;;;16.50;99.90;;;;;;5143686;27;20047;-79
2023/07/24 02:13:44;;;;;;;15.68;10.50;;;16.50;99.90;;;;;;5124583;27;20043;-80
2023/07/24 02:16:10;;;;;;;19.52;11.15;;;16.50;99.90;;;;;;5119415;27;20103;-79
2023/07/24 02:18:36;;;;;;;14.27;10.23;;;16.50;99.90;;;;;;5118433;27;20035;-80
2023/07/24 02:21:02;;;;;;;16.02;10.55;;;16.50;99.90;;;;;;5116727;27;20039;-80
2023/07/24 02:23:27;;;;;;;14.27;10.07;;;16.50;99.90;;;;;;5141797;27;20495;-80
2023/07/24 02:25:53;;;;;;;15.98;10.45;;;16.50;99.90;;;;;;5134985;27;20443;-80
2023/07/24 02:28:19;;;;;;;16.70;10.85;;;16.50;99.90;;;;;;5134055;27;20443;-79
2023/07/24 02:30:47;;;;;;;15.80;10.38;;;16.50;99.90;;;;;;5137590;27;20035;-80
2023/07/24 02:33:12;;;;;;;17.42;10.98;;;16.50;99.90;;;;;;5140424;27;20378;-80
2023/07/24 02:35:42;;;;;;;14.27;10.10;;;16.50;99.90;;;;;;5139391;27;20431;-80
2023/07/24 02:38:08;;;;;;;16.52;10.02;;;16.50;99.90;;;;;;5135811;27;20031;-80
2023/07/24 02:40:35;;;;;;;15.80;10.38;;;16.40;99.90;;;;;;5139879;27;20042;-80
2023/07/24 02:43:03;;;;;;;15.18;9.73;;;16.40;99.90;;;;;;5139018;27;20508;-80
2023/07/24 02:45:28;;;;;;;14.45;9.75;;;16.40;99.90;;;;;;5139868;27;20028;-80
2023/07/24 02:47:54;;;;;;;14.27;9.13;;;16.40;99.90;;;;;;5141642;27;20049;-79
2023/07/24 02:50:20;;;;;;;15.88;10.32;;;16.50;99.90;;;;;;5138021;27;20650;-79
2023/07/24 02:52:48;;;;;;;18.67;9.82;;;16.40;99.90;;;;;;5141034;27;20035;-80
2023/07/24 02:55:13;;;;;;;14.15;9.73;;;16.40;99.90;;;;;;5142118;27;20039;-80
2023/07/24 02:57:39;;;;;;;14.95;9.18;;;16.40;99.90;;;;;;5141004;27;20041;-79
2023/07/24 03:00:05;;;;;;;14.10;10.35;;;16.40;99.90;;;;;;5138071;27;20469;-79
2023/07/24 03:02:31;;;;;;;13.85;9.48;;;16.40;99.90;;;;;;5136885;27;20055;-79
2023/07/24 03:04:57;;;;;;;14.43;9.82;;;16.40;99.90;;;;;;5143512;27;20046;-80
2023/07/24 03:07:22;;;;;;;12.35;9.15;;;16.40;99.90;;;;;;5139779;27;20069;-80
2023/07/24 03:09:50;;;;;;;15.45;9.50;;;16.40;99.90;;;;;;5141660;27;20050;-79
2023/07/24 03:12:16;;;;;;;13.73;9.32;;;16.40;99.90;;;;;;5138973;27;20043;-79
2023/07/24 03:14:42;;;;;;;11.18;8.18;;;16.40;99.90;;;;;;5135369;27;20046;-80
2023/07/24 03:17:07;;;;;;;13.65;9.60;;;16.30;99.90;;;;;;5135640;27;20038;-79
2023/07/24 03:19:33;;;;;;;15.65;10.07;;;16.30;99.90;;;;;;5136955;27;20054;-80
2023/07/24 03:21:59;;;;;;;14.63;10.68;;;16.30;99.90;;;;;;5141257;27;20163;-80
2023/07/24 03:24:24;;;;;;;13.35;9.68;;;16.30;99.90;;;;;;5141530;27;20035;-79
2023/07/24 03:26:50;;;;;;;13.10;9.73;;;16.30;99.90;;;;;;5119452;27;20625;-80
2023/07/24 03:29:16;;;;;;;12.82;8.85;;;16.30;99.90;;;;;;5137020;27;20489;-80
2023/07/24 03:31:41;;;;;;;16.55;9.65;;;16.30;99.90;;;;;;5126191;27;20047;-80
2023/07/24 03:34:07;;;;;;;16.25;10.85;;;16.30;99.90;;;;;;5136809;27;20393;-80
2023/07/24 03:36:33;;;;;;;17.27;11.23;;;16.30;99.90;;;;;;5114238;27;20042;-80
2023/07/24 03:38:59;;;;;;;13.70;9.82;;;16.30;99.90;;;;;;5141366;27;20095;-80
2023/07/24 03:41:25;;;;;;;14.88;10.50;;;16.30;99.90;;;;;;5139818;27;20038;-80
2023/07/24 03:43:50;;;;;;;17.10;10.57;;;16.20;99.90;;;;;;5138032;27;20647;-80
2023/07/24 03:46:16;;;;;;;14.80;10.95;;;16.20;99.90;;;;;;5138867;27;20073;-80
2023/07/24 03:48:41;;;;;;;14.40;10.68;;;16.20;99.90;;;;;;5139643;27;20038;-80
2023/07/24 03:51:08;;;;;;;14.45;10.88;;;16.20;99.90;;;;;;5136121;27;20086;-80
2023/07/24 03:53:34;;;;;;;15.02;10.38;;;16.20;99.90;;;;;;5146074;27;20038;-79
2023/07/24 03:55:59;;;;;;;15.90;11.00;;;16.20;99.90;;;;;;5134891;27;20038;-79
2023/07/24 03:58:25;;;;;;;17.45;11.63;;;16.20;99.90;;;;;;5136725;27;20119;-80
2023/07/24 04:00:50;;;;;;;15.85;11.82;;;16.20;99.90;;;;;;5139524;27;20081;-80
2023/07/24 04:03:16;;;;;;;15.23;10.55;;;16.20;99.90;;;;;;5133157;27;20096;-80
2023/07/24 04:05:42;;;;;;;17.77;10.85;;;16.20;99.90;;;;;;5132238;27;20062;-80
2023/07/24 04:08:08;;;;;;;16.58;10.68;;;16.30;99.90;;;;;;5135912;27;20069;-79
2023/07/24 04:10:33;;;;;;;15.95;11.77;;;16.30;99.90;;;;;;5132609;27;20243;-80
2023/07/24 04:12:59;;;;;;;16.30;11.70;;;16.20;99.90;;;;;;5133706;27;20444;-79
2023/07/24 04:15:24;;;;;;;16.85;11.38;;;16.30;99.90;;;;;;5119644;27;20035;-79
2023/07/24 04:17:50;;;;;;;17.52;11.02;;;16.30;99.90;;;;;;5139629;27;20038;-80
2023/07/24 04:20:16;;;;;;;16.65;10.98;;;16.30;99.90;;;;;;5131619;27;20076;-79
2023/07/24 04:22:41;;;;;;;14.95;10.57;;;16.30;99.90;;;;;;5137186;27;20370;-80
2023/07/24 04:25:07;;;;;;;13.48;10.30;;;16.30;99.90;;;;;;5120941;27;20047;-80
2023/07/24 04:27:33;;;;;;;16.02;10.35;;;16.30;99.90;;;;;;5119089;27;20039;-79
2023/07/24 04:29:58;;;;;;;15.30;9.98;;;16.30;99.90;;;;;;5122491;27;20047;-80
2023/07/24 04:32:27;;;;;;;12.18;9.38;;;16.40;99.90;;;;;;5139348;27;20421;-79
2023/07/24 04:34:53;;;;;;;20.92;11.15;;;16.30;99.90;;;;;;5136591;27;20062;-79
2023/07/24 04:37:18;;;;;;;12.13;9.20;;;16.30;99.90;;;;;;5138052;27;20043;-79
2023/07/24 04:39:44;;;;;;;13.70;10.23;;;16.30;99.90;;;;;;5137723;27;20127;-79
2023/07/24 04:42:10;;;;;;;14.82;10.77;;;16.40;99.90;;;;;;5138962;27;20049;-80
2023/07/24 04:44:36;;;;;;;12.63;9.45;;;16.40;99.90;;;;;;5135561;27;20068;-80
2023/07/24 04:47:02;;;;;;;14.13;9.88;;;16.40;99.90;;;;;;5139435;27;20495;-79
2023/07/24 04:49:32;;;;;;;14.30;10.40;;;16.40;99.90;;;;;;5133924;27;20080;-80
2023/07/24 04:51:58;;;;;;;14.15;10.13;;;16.40;99.90;;;;;;5133788;27;20039;-80
2023/07/24 04:54:24;;;;;;;13.73;8.38;;;16.40;99.90;;;;;;5146708;27;20038;-80
2023/07/24 04:56:50;;;;;;;13.13;9.80;;;16.40;99.90;;;;;;5130984;27;20047;-79
2023/07/24 04:59:16;;;;;;;14.55;10.32;;;16.40;99.90;;;;;;5133689;27;20049;-80
2023/07/24 05:01:42;;;;;;;11.73;8.60;;;16.40;99.90;;;;;;5134309;27;20043;-79
2023/07/24 05:04:08;;;;;;;12.55;9.18;;;16.40;99.90;;;;;;5135344;27;20038;-79
2023/07/24 05:06:38;;;;;;;13.63;9.82;;;16.40;99.90;;;;;;5126259;27;20099;-79
2023/07/24 05:09:04;;;;;;;14.60;10.38;;;16.50;99.90;;;;;;5119263;27;20070;-80
2023/07/24 05:11:29;;;;;;;11.10;8.35;;;16.50;99.90;;;;;;5139014;27;20143;-80
2023/07/24 05:13:55;;;;;;;14.90;10.13;;;16.50;99.90;;;;;;5136851;27;20039;-80
2023/07/24 05:16:21;;;;;;;13.30;9.52;;;16.50;99.90;;;;;;5140747;27;20034;-80
2023/07/24 05:18:46;;;;;;;11.90;9.32;;;16.60;99.90;;;;;;5137570;27;20050;-80
2023/07/24 05:21:12;;;;;;;12.50;9.05;;;16.60;99.90;;;;;;5134137;27;20762;-80
2023/07/24 05:23:37;;;;;;;12.50;9.45;;;16.60;99.90;;;;;;5137413;27;20035;-80
2023/07/24 05:26:03;;;;;;;14.55;10.00;;;16.60;99.90;;;;;;5134904;27;20050;-80
2023/07/24 05:28:31;;;;;;;13.63;9.55;;;16.60;99.90;;;;;;5135772;27;20393;-80
2023/07/24 05:31:02;;;;;;;11.95;9.07;;;16.60;99.90;;;;;;5138033;27;20088;-81
2023/07/24 05:33:27;;;;;;;11.85;9.20;;;16.70;99.90;;;;;;5139451;27;20036;-80
2023/07/24 05:35:58;;;;;;;14.00;9.98;;;16.70;99.90;;;;;;5115397;27;20041;-80
2023/07/24 05:38:23;;;;;;;13.40;9.68;;;16.70;99.90;;;;;;5119846;27;20034;-80
2023/07/24 05:41:03;;;;;;;14.77;9.50;;;16.80;99.90;;;;;;5135561;27;20493;-80
2023/07/24 05:43:30;;;;;;;12.18;9.30;;;16.80;99.90;;;;;;5115608;27;20036;-80
2023/07/24 05:45:57;;;;;;;13.52;9.40;;;16.80;99.90;;;;;;5137520;27;20041;-80
2023/07/24 05:48:23;;;;;;;13.10;9.07;;;16.80;99.90;;;;;;5138729;27;20645;-80
2023/07/24 05:50:49;;;;;;;14.00;9.85;;;16.90;99.90;;;;;;5141729;27;20084;-80
2023/07/24 05:53:16;;;;;;;14.23;9.43;;;16.90;99.90;;;;;;5137356;27;20039;-81
2023/07/24 05:55:45;;;;;;;12.40;8.98;;;16.90;99.90;;;;;;5120303;27;20302;-81
2023/07/24 05:58:11;;;;;;;11.63;8.88;;;16.90;99.90;;;;;;5138903;27;20049;-82
2023/07/24 06:00:37;;;;;;;16.45;9.82;;;17.00;99.90;;;;;;5138049;27;20780;-81
2023/07/24 06:03:03;;;;;;;13.98;8.88;;;17.00;99.90;;;;;;5140567;27;20131;-81
2023/07/24 06:05:28;;;;;;;13.85;10.13;;;17.00;99.90;;;;;;5140028;27;20031;-81
2023/07/24 06:07:54;;;;;;;13.30;8.65;;;17.10;99.90;;;;;;5120173;27;20426;-81
2023/07/24 06:10:20;;;;;;;14.65;9.68;;;17.10;99.90;;;;;;5120578;27;20074;-81
2023/07/24 06:12:47;;;;;;;13.23;9.43;;;17.10;99.90;;;;;;5117804;27;20051;-81
2023/07/24 06:15:13;;;;;;;15.23;9.93;;;17.10;99.90;;;;;;5142480;27;20226;-81
2023/07/24 06:17:39;;;;;;;13.00;9.50;;;17.10;99.90;;;;;;5115474;27;20035;-81
2023/07/24 06:20:06;;;;;;;12.32;8.57;;;17.10;99.90;;;;;;5133498;27;20626;-81
2023/07/24 06:22:31;;;;;;;14.05;9.27;;;17.10;99.90;;;;;;5140931;27;20039;-81
2023/07/24 06:24:57;;;;;;;14.40;9.27;;;17.20;99.90;;;;;;5137389;27;20366;-81
2023/07/24 06:27:22;;;;;;;13.35;8.88;;;17.20;99.90;;;;;;5139529;27;20472;-81
2023/07/24 06:29:48;;;;;;;16.05;9.85;;;17.20;99.90;;;;;;5144296;27;20056;-81
2023/07/24 06:32:14;;;;;;;14.32;9.27;;;17.30;99.90;;;;;;5144171;27;20075;-81
2023/07/24 06:34:39;;;;;;;14.57;9.13;;;17.30;99.90;;;;;;5143976;27;20026;-81
2023/07/24 06:37:05;;;;;;;13.20;9.27;;;17.30;99.90;;;;;;5125880;27;20034;-81
2023/07/24 06:39:30;;;;;;;12.60;9.10;;;17.40;99.90;;;;;;5142018;27;20059;-81
2023/07/24 06:41:56;;;;;;;12.60;8.00;;;17.40;99.90;;;;;;5134403;27;20466;-81
2023/07/24 06:44:22;;;;;;;12.07;9.02;;;17.40;99.90;;;;;;5119733;27;20035;-81
2023/07/24 06:46:47;;;;;;;14.02;8.80;;;17.50;99.90;;;;;;5126459;27;20034;-81
2023/07/24 06:49:13;;;;;;;13.75;9.18;;;17.50;99.90;;;;;;5115781;27;20080;-81
2023/07/24 06:51:39;;;;;;;12.88;8.60;;;17.60;99.90;;;;;;5126429;27;20467;-81
2023/07/24 06:54:05;;;;;;;12.10;8.10;;;17.70;99.90;;;;;;5133466;27;20043;-81
2023/07/24 06:56:31;;;;;;;12.95;8.50;;;17.70;99.90;;;;;;5117811;27;20038;-81
2023/07/24 06:58:57;;;;;;;15.93;9.45;;;17.80;99.90;;;;;;5139310;27;20039;-80
2023/07/24 07:01:22;;;;;;;11.75;8.10;;;17.80;99.90;;;;;;5141867;27;20051;-80
2023/07/24 07:03:48;;;;;;;11.63;8.20;;;17.90;99.90;;;;;;5135894;27;20042;-80
2023/07/24 07:06:14;;;;;;;12.65;8.50;;;18.00;99.90;;;;;;5136888;27;20062;-80
2023/07/24 07:08:39;;;;;;;12.88;8.45;;;18.00;99.90;;;;;;5138757;27;20083;-80
2023/07/24 07:11:05;;;;;;;12.05;8.00;;;18.00;99.90;;;;;;5136910;27;20754;-81
2023/07/24 07:13:31;;;;;;;12.23;8.15;;;18.10;99.90;;;;;;5116337;27;20043;-81
2023/07/24 07:15:56;;;;;;;14.95;8.50;;;18.10;99.90;;;;;;5134030;27;20038;-81
2023/07/24 07:18:22;;;;;;;13.50;8.20;;;18.20;99.90;;;;;;5135504;27;20029;-81
2023/07/24 07:20:49;;;;;;;14.82;7.80;;;18.20;99.90;;;;;;5142084;27;20035;-81
2023/07/24 07:23:16;;;;;;;14.63;8.45;;;18.20;99.90;;;;;;5136857;27;20050;-80
2023/07/24 07:25:45;;;;;;;12.60;8.25;;;18.30;99.90;;;;;;5138493;27;20035;-81
2023/07/24 07:28:12;;;;;;;18.00;8.88;;;18.30;99.90;;;;;;5139872;27;20060;-81
2023/07/24 07:30:37;;;;;;;12.77;8.25;;;18.40;99.90;;;;;;5132572;27;20054;-81
2023/07/24 07:33:05;;;;;;;16.48;8.82;;;18.30;99.90;;;;;;5135041;27;20389;-80
2023/07/24 07:35:32;;;;;;;13.20;8.15;;;18.40;99.90;;;;;;5136874;27;20043;-81
2023/07/24 07:37:58;;;;;;;13.13;7.72;;;18.40;99.90;;;;;;5130247;27;20068;-81
2023/07/24 07:40:23;;;;;;;16.08;9.02;;;18.50;99.90;;;;;;5135489;27;20034;-81
2023/07/24 07:42:49;;;;;;;14.70;8.70;;;18.60;99.90;;;;;;5119983;27;20030;-81
2023/07/24 07:45:15;;;;;;;15.23;9.80;;;18.50;99.90;;;;;;5119884;27;20520;-81
2023/07/24 07:47:41;;;;;;;14.60;8.82;;;18.60;99.90;;;;;;5121356;27;20039;-81
2023/07/24 07:50:06;;;;;;;17.40;9.85;;;18.60;99.90;;;;;;5124324;27;20034;-81
2023/07/24 07:52:32;;;;;;;15.95;9.02;;;18.60;99.90;;;;;;5134796;27;20464;-81
2023/07/24 07:54:58;;;;;;;16.05;9.75;;;18.60;99.90;;;;;;5129963;27;20031;-81
2023/07/24 07:57:23;;;;;;;17.05;9.90;;;18.70;99.90;;;;;;5142942;27;20035;-81
2023/07/24 07:59:49;;;;;;;15.82;9.13;;;18.70;99.90;;;;;;5135630;27;20384;-81
2023/07/24 08:02:14;;;;;;;18.65;9.93;;;18.70;99.90;;;;;;5132296;27;20058;-81
2023/07/24 08:04:40;;;;;;;15.57;9.45;;;18.70;99.90;;;;;;5121059;27;20389;-81
2023/07/24 08:07:06;;;;;;;16.10;8.95;;;18.80;99.90;;;;;;5135767;27;20043;-80
2023/07/24 08:09:32;;;;;;;12.68;8.00;;;18.80;99.90;;;;;;5135638;27;20034;-81
2023/07/24 08:11:58;;;;;;;15.23;8.50;;;18.80;99.90;;;;;;5131820;27;20066;-81
2023/07/24 08:14:23;;;;;;;13.05;7.72;;;18.80;99.90;;;;;;5140946;27;20538;-81
2023/07/24 08:16:49;;;;;;;18.73;8.98;;;18.80;99.90;;;;;;5138910;27;20110;-81
2023/07/24 08:19:15;;;;;;;18.17;8.98;;;18.80;99.90;;;;;;5133395;27;20042;-81
2023/07/24 08:21:41;;;;;;;14.75;8.80;;;18.80;99.90;;;;;;5130742;27;20151;-81
2023/07/24 08:24:07;;;;;;;12.02;8.05;;;18.90;99.90;;;;;;5130281;27;20047;-82
2023/07/24 08:26:32;;;;;;;11.40;8.15;;;18.90;99.90;;;;;;5124153;27;20031;-83
2023/07/24 08:28:58;;;;;;;13.60;7.32;;;19.00;99.90;;;;;;5133061;27;20043;-81
2023/07/24 08:31:24;;;;;;;13.93;7.72;;;19.00;99.90;;;;;;5141056;27;20043;-83
2023/07/24 08:33:50;;;;;;;13.48;8.77;;;19.10;99.90;;;;;;5121661;27;20049;-83
2023/07/24 08:36:15;;;;;;;12.85;8.30;;;19.20;99.90;;;;;;5135383;27;20088;-83
2023/07/24 08:38:42;;;;;;;13.77;7.93;;;19.20;99.90;;;;;;5118001;27;20031;-82
2023/07/24 08:41:10;;;;;;;13.07;8.57;;;19.30;99.90;;;;;;5120408;27;20045;-82
2023/07/24 08:43:37;;;;;;;14.27;8.40;;;19.30;99.90;;;;;;5116847;27;20027;-81
2023/07/24 08:46:04;;;;;;;17.13;9.07;;;19.40;99.90;;;;;;5104014;27;20209;-82
2023/07/24 08:48:35;;;;;;;13.35;8.43;;;19.40;99.90;;;;;;5115415;27;20034;-81
2023/07/24 08:51:02;;;;;;;12.50;7.93;;;19.40;99.90;;;;;;5125226;27;20141;-81
2023/07/24 08:53:29;;;;;;;16.02;9.63;;;19.50;99.90;;;;;;5105974;27;20043;-81
2023/07/24 08:55:56;;;;;;;14.48;8.68;;;19.50;99.90;;;;;;5099559;27;20035;-81
2023/07/24 08:58:22;;;;;;;15.50;8.05;;;19.50;99.90;;;;;;5138278;27;20023;-81
2023/07/24 09:00:48;;;;;;;13.88;8.05;;;19.60;99.90;;;;;;5135585;27;20495;-81
2023/07/24 09:03:14;;;;;;;13.98;8.30;;;19.70;99.90;;;;;;5127737;27;20049;-81
2023/07/24 09:05:39;;;;;;;14.05;8.00;;;19.80;99.90;;;;;;5144233;27;20030;-82
2023/07/24 09:08:05;;;;;;;14.63;7.53;;;19.80;99.90;;;;;;5139211;27;20057;-82
2023/07/24 09:10:30;;;;;;;14.43;7.80;;;20.00;99.90;;;;;;5138584;27;20122;-82
2023/07/24 09:12:56;;;;;;;15.27;7.85;;;20.00;99.90;;;;;;5136440;27;20082;-82
2023/07/24 09:15:22;;;;;;;12.27;6.95;;;20.10;99.90;;;;;;5132975;27;20038;-82
2023/07/24 09:17:52;;;;;;;13.15;8.63;;;20.10;99.90;;;;;;5107354;27;20058;-82
2023/07/24 09:20:21;;;;;;;16.45;7.65;;;20.20;99.90;;;;;;5118116;27;20034;-82
2023/07/24 09:22:54;;;;;;;12.48;7.30;;;20.20;99.90;;;;;;5135297;27;20941;-82
2023/07/24 09:25:31;;;;;;;13.25;7.65;;;20.30;99.90;;;;;;5120038;27;20035;-83
2023/07/24 09:27:58;;;;;;;14.70;7.68;;;20.30;99.90;;;;;;5115766;27;20038;-82
2023/07/24 09:30:24;;;;;;;14.60;8.52;;;20.50;99.90;;;;;;5139098;27;20542;-82
2023/07/24 09:32:53;;;;;;;13.63;7.57;;;20.80;99.90;;;;;;5140169;27;20034;-81
2023/07/24 09:35:20;;;;;;;14.25;7.50;;;21.10;99.90;;;;;;5120234;27;20441;-82
2023/07/24 09:37:46;;;;;;;13.82;7.05;;;21.30;99.90;;;;;;5133316;27;20114;-81
2023/07/24 09:40:14;;;;;;;13.35;6.70;;;21.30;99.90;;;;;;5138344;27;20043;-81
2023/07/24 09:42:40;;;;;;;12.40;6.97;;;21.30;99.90;;;;;;5139329;27;20461;-82
2023/07/24 09:45:08;;;;;;;11.73;7.22;;;21.30;99.90;;;;;;5140572;27;20485;-81
2023/07/24 09:47:34;;;;;;;12.07;6.85;;;21.40;99.90;;;;;;5141723;27;20027;-82
2023/07/24 09:50:03;;;;;;;11.85;6.45;;;21.40;99.90;;;;;;5141805;27;20035;-82
2023/07/24 09:52:30;;;;;;;11.82;5.95;;;21.50;99.90;;;;;;5142977;27;20031;-82
2023/07/24 09:55:04;;;;;;;9.57;5.88;;;21.60;99.90;;;;;;5147042;27;20076;-82
2023/07/24 09:57:32;;;;;;;12.30;5.70;;;21.70;99.90;;;;;;5134558;27;20125;-82
2023/07/24 09:59:58;;;;;;;12.20;5.40;;;21.70;99.90;;;;;;5120144;27;20035;-82
2023/07/24 10:02:24;;;;;;;9.32;4.82;;;21.70;99.90;;;;;;5099211;27;20055;-82
2023/07/24 10:04:50;;;;;;;8.93;4.95;;;21.80;99.90;;;;;;5126046;27;20370;-82
2023/07/24 10:07:21;;;;;;;11.00;5.55;;;21.80;99.90;;;;;;5117604;27;20057;-82
2023/07/24 10:09:48;;;;;;;11.27;5.55;;;21.90;99.90;;;;;;5140378;27;20043;-82
2023/07/24 10:12:16;;;;;;;11.02;5.10;;;22.00;99.90;;;;;;5115163;27;20047;-82
2023/07/24 10:14:42;;;;;;;10.15;5.47;;;22.00;99.90;;;;;;5134132;27;20077;-82
2023/07/24 10:17:08;;;;;;;10.90;5.32;;;22.10;99.90;;;;;;5140975;27;20489;-81
2023/07/24 10:19:42;;;;;;;11.07;4.53;;;22.30;99.90;;;;;;5137315;27;20050;-82
2023/07/24 10:22:10;;;;;;;11.32;5.10;;;22.50;99.90;;;;;;5135742;27;20039;-81
2023/07/24 10:24:36;;;;;;;10.90;4.55;;;22.40;99.90;;;;;;5123529;27;20039;-82
2023/07/24 10:27:03;;;;;;;10.85;4.45;;;22.60;99.90;;;;;;5101367;27;20095;-82
2023/07/24 10:29:33;;;;;;;9.88;4.88;;;22.80;99.90;;;;;;5117535;27;20051;-89
2023/07/24 10:31:59;;;;;;;9.30;4.80;;;22.90;99.90;;;;;;5103456;27;20043;-80
2023/07/24 10:34:24;;;;;;;9.95;5.38;;;22.90;99.90;;;;;;5118007;27;20039;-81
2023/07/24 10:36:50;;;;;;;10.50;5.10;;;22.90;99.90;;;;;;5100717;27;20285;-79
2023/07/24 10:39:21;;;;;;;13.00;5.45;;;22.80;99.90;;;;;;5120288;27;20091;-79
2023/07/24 10:41:46;;;;;;;8.07;4.97;;;22.80;99.90;;;;;;5136209;27;20043;-79
2023/07/24 10:44:12;;;;;;;10.30;5.15;;;22.70;99.90;;;;;;5154665;27;20301;-79
2023/07/24 10:46:44;;;;;;;9.93;5.53;;;22.60;99.90;;;;;;5145732;27;20046;-79
2023/07/24 10:49:11;;;;;;;10.98;5.20;;;22.40;99.90;;;;;;5144479;27;20078;-79
2023/07/24 10:51:37;;;;;;;11.90;5.53;;;22.40;99.90;;;;;;5140973;27;20553;-81
2023/07/24 10:54:06;;;;;;;10.73;5.05;;;22.50;99.90;;;;;;5123883;27;20122;-81
2023/07/24 10:56:32;;;;;;;8.55;4.50;;;22.60;99.90;;;;;;5145809;27;20030;-80
2023/07/24 10:59:05;;;;;;;9.85;4.93;;;22.80;99.90;;;;;;5140682;27;20114;-80
2023/07/24 11:01:32;;;;;;;11.60;5.75;;;22.90;99.90;;;;;;5136808;27;20223;-78
2023/07/24 11:03:58;;;;;;;10.50;4.97;;;22.90;99.90;;;;;;5122627;27;20035;-83
2023/07/24 11:06:24;;;;;;;12.50;5.53;;;22.90;99.90;;;;;;5128889;27;20034;-84
2023/07/24 11:08:58;;;;;;;9.68;5.00;;;22.80;99.90;;;;;;5126276;27;20035;-84
2023/07/24 11:11:31;;;;;;;9.93;4.65;;;22.70;99.90;;;;;;5141743;27;20112;-83
2023/07/24 11:13:57;;;;;;;10.25;5.15;;;22.60;99.90;;;;;;5139078;27;20039;-83
2023/07/24 11:16:23;;;;;;;8.95;4.57;;;22.60;99.90;;;;;;5119045;27;20046;-84
2023/07/24 11:18:51;;;;;;;9.77;4.80;;;22.60;99.90;;;;;;5109185;27;20031;-83
2023/07/24 11:21:18;;;;;;;8.95;4.88;;;22.60;99.90;;;;;;5137194;27;20083;-83
2023/07/24 11:23:51;;;;;;;13.18;5.72;;;22.60;99.90;;;;;;5120484;27;20039;-85
2023/07/24 11:26:21;;;;;;;10.15;5.05;;;22.50;99.90;;;;;;5142991;27;20038;-86
2023/07/24 11:28:49;;;;;;;8.45;4.55;;;22.50;99.90;;;;;;5140210;27;20469;-85
2023/07/24 11:31:15;;;;;;;7.80;4.90;;;22.50;99.90;;;;;;5127607;27;20053;-85
2023/07/24 11:33:41;;;;;;;9.13;4.63;;;22.50;99.90;;;;;;5132312;27;20039;-81
2023/07/24 11:36:08;;;;;;;10.70;4.03;;;22.50;99.90;;;;;;5117901;27;20099;-84
2023/07/24 11:38:33;;;;;;;9.88;4.68;;;22.50;99.90;;;;;;5107429;27;20103;-81
2023/07/24 11:40:59;;;;;;;8.60;4.35;;;22.40;99.90;;;;;;5118755;27;20038;-81
2023/07/24 11:43:26;;;;;;;9.40;4.55;;;22.40;99.90;;;;;;5114856;27;20050;-82
2023/07/24 11:45:53;;;;;;;7.90;4.30;;;22.40;99.90;;;;;;5131633;27;20064;-81
2023/07/24 11:48:23;;;;;;;12.07;4.30;;;22.50;99.90;;;;;;5141914;27;20418;-82
2023/07/24 11:50:51;;;;;;;8.32;4.75;;;22.50;99.90;;;;;;5138935;27;20515;-82
2023/07/24 11:53:31;;;;;;;9.60;4.65;;;22.60;99.90;;;;;;5112578;27;20035;-83
2023/07/24 11:55:58;;;;;;;10.20;4.50;;;22.60;99.90;;;;;;5133926;27;20122;-82
2023/07/24 11:58:28;;;;;;;10.07;4.72;;;22.60;99.90;;;;;;5123980;27;20038;-83
2023/07/24 12:00:54;;;;;;;9.82;5.13;;;22.60;99.90;;;;;;5123555;27;20063;-84
2023/07/24 12:03:21;;;;;;;9.35;4.90;;;22.50;99.90;;;;;;5125407;27;20034;-84
2023/07/24 12:05:47;;;;;;;8.43;4.35;;;22.50;99.90;;;;;;5116335;27;20046;-84
2023/07/24 12:08:14;;;;;;;10.18;4.70;;;22.50;99.90;;;;;;5134774;27;20484;-84
2023/07/24 12:10:40;;;;;;;8.43;4.80;;;22.40;99.90;;;;;;5119465;27;20051;-84
2023/07/24 12:13:06;;;;;;;13.57;5.18;;;22.40;99.90;;;;;;5119316;27;20776;-84
2023/07/24 12:15:35;;;;;;;8.55;4.97;;;22.40;99.90;;;;;;5118528;27;20397;-82
2023/07/24 12:18:04;;;;;;;10.27;5.30;;;22.30;99.90;;;;;;5115053;27;20821;-84
2023/07/24 12:20:31;;;;;;;9.55;5.35;;;22.30;99.90;;;;;;5122189;27;20035;-83
2023/07/24 12:22:57;;;;;;;10.55;5.07;;;22.30;99.90;;;;;;5135073;27;20049;-84
2023/07/24 12:25:23;;;;;;;9.27;5.30;;;22.30;99.90;;;;;;5140057;27;20127;-82
2023/07/24 12:27:48;;;;;;;13.43;6.00;;;22.30;99.90;;;;;;5122414;27;20039;-82
2023/07/24 12:30:14;;;;;;;10.15;5.70;;;22.40;99.90;;;;;;5113510;27;20233;-82
2023/07/24 12:32:40;;;;;;;9.23;4.88;;;22.50;99.90;;;;;;5119654;27;20039;-84